Time;durP1;ratioP1;P1;durP2;ratioP2;P2;SDS_P1;SDS_P2;PMS_P1;PMS_P2;Temp;Humidity;BMP_temperature;BMP_pressure;BME280_temperature;BME280_humidity;BME280_pressure;Samples;Min_cycle;Max_cycle;Signal;HPM_P1;HPM_P2
2022/01/25 00:28:18;;;;;;;4.28;3.12;;;;;;;2.31;46.08;102658.78;144992;837;6003;-81
2022/01/25 00:30:59;;;;;;;8.65;4.72;;;;;;;2.47;45.33;102664.59;144992;571;6004;-81
2022/01/25 00:33:30;;;;;;;5.00;3.58;;;;;;;2.45;46.53;102658.41;144992;766;6004;-81
2022/01/25 00:35:58;;;;;;;5.87;3.40;;;;;;;2.47;46.97;102664.59;144991;568;6000;-80
2022/01/25 00:38:24;;;;;;;8.40;5.05;;;;;;;2.46;47.19;102667.88;144992;637;6002;-81
2022/01/25 00:40:51;;;;;;;7.30;4.70;;;;;;;2.46;46.54;102677.25;144992;910;6002;-81
2022/01/25 00:43:23;;;;;;;8.43;4.50;;;;;;;2.54;46.82;102684.94;144992;911;6002;-81
2022/01/25 00:45:53;;;;;;;5.97;3.65;;;;;;;2.43;47.33;102682.97;144992;595;6002;-80
2022/01/25 00:48:43;;;;;;;8.43;4.72;;;;;;;2.49;47.67;102687.81;144992;881;6002;-82
2022/01/25 00:52:04;;;;;;;5.47;4.28;;;;;;;2.50;46.88;102677.69;144992;622;6002;-83
2022/01/25 00:54:33;;;;;;;4.53;3.30;;;;;;;2.69;46.71;102679.41;144993;592;6002;-81
2022/01/25 00:57:01;;;;;;;5.75;3.40;;;;;;;2.48;47.32;102688.53;144993;715;6002;-80
2022/01/25 00:59:30;;;;;;;6.10;4.10;;;;;;;2.49;47.19;102693.81;144993;577;6002;-81
2022/01/25 01:02:04;;;;;;;6.32;4.15;;;;;;;2.58;46.85;102683.53;144993;564;6002;-80
2022/01/25 01:04:32;;;;;;;6.05;3.55;;;;;;;2.33;47.62;102690.59;144993;571;6002;-83
2022/01/25 01:07:01;;;;;;;6.18;4.60;;;;;;;2.46;47.64;102701.22;144993;595;6002;-81
2022/01/25 01:09:32;;;;;;;5.35;4.05;;;;;;;2.70;46.93;102702.66;144993;585;6002;-82
2022/01/25 01:12:05;;;;;;;9.13;3.47;;;;;;;2.54;46.85;102689.12;144993;588;6002;-82
2022/01/25 01:29:09;;;;;;;4.47;3.20;;;;;;;2.13;47.13;102679.34;144992;574;6002;-81
2022/01/25 01:37:32;;;;;;;4.45;3.10;;;;;;;2.18;46.82;102708.88;144992;587;6000;-80
2022/01/25 01:40:21;;;;;;;5.18;2.80;;;;;;;2.07;46.51;102699.25;144993;761;6002;-79
2022/01/25 01:43:05;;;;;;;4.40;3.00;;;;;;;2.08;46.77;102695.91;144993;768;6002;-82
2022/01/25 01:46:02;;;;;;;4.12;3.10;;;;;;;2.10;46.86;102703.75;144993;910;6002;-80
2022/01/25 01:48:33;;;;;;;4.15;3.28;;;;;;;2.05;47.03;102704.97;144992;567;6004;-80
2022/01/25 01:51:07;;;;;;;4.70;3.70;;;;;;;2.14;47.08;102714.44;144993;747;6000;-81
2022/01/25 01:53:46;;;;;;;4.68;3.50;;;;;;;2.17;46.75;102706.16;144993;912;6002;-82
2022/01/25 01:56:32;;;;;;;5.78;3.58;;;;;;;2.17;46.18;102699.38;144993;607;6002;-88
2022/01/25 01:59:09;;;;;;;3.58;3.08;;;;;;;2.13;46.37;102693.78;144993;597;6002;-86
2022/01/25 02:01:42;;;;;;;4.22;3.20;;;;;;;2.34;45.73;102703.53;144993;570;6002;-81
2022/01/25 02:04:16;;;;;;;4.75;3.28;;;;;;;2.22;46.35;102694.69;144993;702;6003;-81
2022/01/25 02:06:44;;;;;;;4.35;3.08;;;;;;;2.23;45.30;102695.56;144993;675;6002;-86
2022/01/25 02:09:16;;;;;;;4.72;3.25;;;;;;;2.56;45.97;102704.66;144993;677;6002;-80
2022/01/25 02:11:50;;;;;;;5.22;3.25;;;;;;;2.43;45.31;102706.06;144993;587;6003;-81
2022/01/25 02:14:20;;;;;;;5.15;3.10;;;;;;;2.56;45.56;102702.09;144993;831;6002;-81
2022/01/25 02:17:13;;;;;;;5.30;3.37;;;;;;;2.57;44.15;102704.81;144993;577;6002;-81
2022/01/25 02:22:32;;;;;;;4.45;3.10;;;;;;;2.58;44.54;102715.94;144993;579;6004;-81
2022/01/25 02:24:59;;;;;;;5.65;3.40;;;;;;;2.36;45.19;102722.53;144993;703;6002;-82
2022/01/25 02:27:26;;;;;;;6.07;3.35;;;;;;;2.45;45.28;102719.94;144993;591;6002;-81
2022/01/25 02:29:53;;;;;;;5.93;3.58;;;;;;;2.36;45.32;102717.41;144993;577;6002;-81
2022/01/25 02:32:20;;;;;;;6.43;4.20;;;;;;;2.21;45.41;102710.81;144993;588;6002;-81
2022/01/25 02:34:48;;;;;;;4.95;3.60;;;;;;;2.29;45.99;102716.66;144994;564;5002;-81
2022/01/25 02:37:16;;;;;;;5.68;4.05;;;;;;;2.48;45.61;102715.09;144994;638;5002;-81
2022/01/25 02:39:45;;;;;;;7.93;4.90;;;;;;;2.44;45.46;102718.13;144994;583;5002;-81
2022/01/25 02:42:14;;;;;;;7.25;4.72;;;;;;;2.20;45.98;102719.28;144994;661;5002;-80
2022/01/25 02:44:42;;;;;;;6.40;4.50;;;;;;;2.40;46.03;102718.59;144994;584;5002;-83
2022/01/25 02:49:54;;;;;;;6.25;4.35;;;;;;;2.22;45.70;102722.88;144994;632;5004;-81
2022/01/25 02:52:20;;;;;;;6.47;4.18;;;;;;;2.24;45.46;102720.47;144994;700;5004;-81
2022/01/25 02:54:49;;;;;;;6.18;4.60;;;;;;;2.11;44.92;102719.28;144994;567;5004;-80
2022/01/25 02:57:15;;;;;;;7.97;5.15;;;;;;;2.10;46.11;102717.50;144994;566;5004;-81
2022/01/25 02:59:42;;;;;;;5.82;4.47;;;;;;;2.18;45.56;102708.88;144994;884;5004;-82
2022/01/25 03:02:09;;;;;;;5.72;3.83;;;;;;;2.15;45.72;102713.69;144994;584;5004;-82
2022/01/25 03:04:37;;;;;;;5.28;3.62;;;;;;;2.18;44.35;102714.00;144994;591;5004;-81
2022/01/25 03:07:04;;;;;;;6.00;3.40;;;;;;;2.07;43.68;102717.19;144994;568;5004;-82
2022/01/25 03:09:31;;;;;;;5.28;3.65;;;;;;;1.96;42.80;102725.50;144994;649;5004;-82
2022/01/25 03:11:59;;;;;;;4.80;3.33;;;;;;;1.74;42.36;102718.28;144994;577;5004;-80
2022/01/25 03:14:31;;;;;;;8.10;4.90;;;;;;;1.83;42.04;102710.63;144994;595;5004;-81
2022/01/25 03:19:48;;;;;;;7.68;5.15;;;;;;;1.61;42.19;102720.41;144994;693;5002;-82
2022/01/25 03:25:05;;;;;;;7.28;4.78;;;;;;;1.63;42.31;102718.91;144994;826;5004;-79
2022/01/25 03:27:31;;;;;;;7.43;4.72;;;;;;;1.66;42.27;102713.19;144994;584;5004;-80
2022/01/25 03:29:58;;;;;;;8.05;4.80;;;;;;;1.73;41.84;102711.34;144994;908;5004;-81
2022/01/25 03:32:24;;;;;;;5.35;4.28;;;;;;;1.80;42.56;102712.88;144994;722;5004;-84
2022/01/25 03:34:50;;;;;;;6.10;3.87;;;;;;;1.59;42.12;102702.34;144994;591;5004;-80
2022/01/25 03:37:17;;;;;;;4.43;3.50;;;;;;;1.52;42.27;102709.28;144994;578;5004;-81
2022/01/25 03:39:44;;;;;;;5.00;3.70;;;;;;;1.56;43.03;102716.47;144994;570;5004;-82
2022/01/25 03:42:14;;;;;;;5.50;3.62;;;;;;;1.55;42.74;102709.56;144994;590;5004;-80
2022/01/25 03:45:00;;;;;;;8.40;4.00;;;;;;;1.50;42.92;102726.16;144994;567;5004;-78
2022/01/25 03:47:42;;;;;;;4.55;3.40;;;;;;;1.52;42.81;102722.06;144994;578;5004;-81
2022/01/25 03:50:09;;;;;;;5.68;4.10;;;;;;;1.60;43.57;102733.97;144994;572;5004;-82
2022/01/25 03:52:38;;;;;;;5.07;3.50;;;;;;;1.75;43.96;102727.78;144994;908;5004;-81
2022/01/25 03:55:06;;;;;;;3.90;3.50;;;;;;;1.57;43.76;102738.78;144994;908;5004;-82
2022/01/25 03:57:32;;;;;;;3.85;3.10;;;;;;;1.52;43.74;102742.56;144994;567;5004;-83
2022/01/25 04:00:00;;;;;;;4.15;3.20;;;;;;;1.55;44.18;102745.41;144993;908;5004;-80
2022/01/25 04:02:30;;;;;;;4.30;3.28;;;;;;;1.47;44.40;102751.44;144994;911;5002;-81
2022/01/25 04:04:59;;;;;;;4.32;3.70;;;;;;;1.70;44.11;102753.69;144994;642;5002;-82
2022/01/25 04:07:41;;;;;;;5.60;3.53;;;;;;;1.68;44.07;102757.75;144994;563;5002;-82
2022/01/25 04:10:08;;;;;;;4.32;3.30;;;;;;;1.64;43.93;102766.81;144994;584;5002;-81
2022/01/25 04:12:35;;;;;;;5.32;3.03;;;;;;;1.56;43.12;102754.88;144994;575;5002;-82
2022/01/25 04:15:02;;;;;;;4.85;3.60;;;;;;;1.68;43.09;102750.09;144994;611;5002;-82
2022/01/25 04:17:29;;;;;;;6.22;3.85;;;;;;;1.73;43.22;102757.44;144994;708;5002;-82
2022/01/25 04:25:32;;;;;;;5.37;3.45;;;;;;;1.41;43.09;102759.41;144994;652;5002;-82
2022/01/25 04:27:59;;;;;;;5.62;3.47;;;;;;;1.47;43.29;102770.25;144994;860;5002;-83
2022/01/25 04:30:26;;;;;;;4.00;3.33;;;;;;;1.59;43.41;102771.47;144994;569;5002;-82
2022/01/25 04:33:04;;;;;;;4.87;3.60;;;;;;;1.70;43.92;102781.84;144994;577;5002;-81
2022/01/25 04:49:26;;;;;;;5.28;3.65;;;;;;;1.69;43.30;102790.31;144994;909;5004;-82
2022/01/25 04:52:06;;;;;;;4.25;2.92;;;;;;;1.57;43.29;102789.97;144994;571;5004;-81
2022/01/25 04:55:06;;;;;;;4.85;3.30;;;;;;;1.71;43.45;102801.59;144994;599;5004;-81
2022/01/25 04:57:49;;;;;;;4.18;3.08;;;;;;;1.81;41.49;102807.78;144994;911;5004;-82
2022/01/25 05:00:19;;;;;;;4.32;3.20;;;;;;;1.67;41.18;102808.09;144994;720;5004;-82
2022/01/25 05:03:09;;;;;;;4.70;3.40;;;;;;;2.13;42.28;102801.41;144994;910;5004;-81
2022/01/25 05:05:52;;;;;;;7.57;3.33;;;;;;;2.07;40.59;102800.81;144994;911;5004;-80
2022/01/25 05:08:36;;;;;;;3.50;3.20;;;;;;;2.28;41.17;102807.16;144994;696;5004;-81
2022/01/25 05:11:16;;;;;;;4.20;3.20;;;;;;;2.26;39.57;102811.19;144994;911;5004;-82
2022/01/25 05:16:38;;;;;;;5.25;3.33;;;;;;;2.03;40.52;102809.87;144994;905;5002;-81
2022/01/25 05:19:36;;;;;;;4.68;3.10;;;;;;;1.75;39.57;102819.06;144994;869;5002;-81
2022/01/25 05:24:53;;;;;;;5.50;2.78;;;;;;;2.12;39.30;102821.03;144994;561;5004;-80
2022/01/25 05:27:33;;;;;;;7.40;3.70;;;;;;;2.21;41.13;102832.91;144994;586;5004;-81
2022/01/25 05:30:08;;;;;;;4.10;3.17;;;;;;;2.41;41.17;102822.03;144994;877;5004;-82
2022/01/25 05:32:34;;;;;;;5.28;3.72;;;;;;;2.11;38.95;102821.75;144994;911;5004;-80
2022/01/25 05:35:02;;;;;;;4.62;3.55;;;;;;;2.24;40.36;102820.41;144994;841;5004;-79
2022/01/25 05:37:29;;;;;;;5.15;3.60;;;;;;;2.46;39.94;102814.03;144994;887;5004;-81
2022/01/25 05:39:55;;;;;;;4.68;3.85;;;;;;;2.15;39.10;102815.31;144994;854;5004;-83
2022/01/25 05:45:38;;;;;;;6.18;3.92;;;;;;;2.12;40.52;102822.69;144994;578;5002;-82
2022/01/25 05:48:05;;;;;;;6.45;3.95;;;;;;;2.03;40.13;102819.22;144994;580;5002;-82
2022/01/25 05:50:33;;;;;;;6.75;3.78;;;;;;;2.11;40.67;102821.75;144994;589;5002;-81
2022/01/25 05:53:02;;;;;;;5.53;3.70;;;;;;;2.05;40.34;102813.47;144994;594;5002;-81
2022/01/25 05:55:28;;;;;;;5.03;3.70;;;;;;;2.06;40.49;102820.41;144994;565;5002;-82
2022/01/25 05:57:55;;;;;;;7.87;4.50;;;;;;;2.33;40.81;102818.75;144994;666;5002;-81
2022/01/25 06:00:21;;;;;;;6.05;4.37;;;;;;;1.96;41.49;102808.38;144994;910;5002;-82
2022/01/25 06:02:53;;;;;;;5.32;4.20;;;;;;;1.91;41.40;102813.78;144994;911;5002;-82
2022/01/25 06:05:19;;;;;;;6.70;4.70;;;;;;;1.92;40.73;102819.06;144994;911;5002;-81
2022/01/25 06:07:46;;;;;;;6.28;4.22;;;;;;;2.05;40.71;102818.59;144994;735;5002;-81
2022/01/25 06:10:13;;;;;;;6.68;3.90;;;;;;;1.96;40.16;102808.38;144994;834;5002;-81
2022/01/25 06:12:42;;;;;;;7.55;3.92;;;;;;;1.98;40.17;102808.53;144994;630;5002;-81
2022/01/25 06:15:09;;;;;;;7.35;4.40;;;;;;;2.05;40.55;102803.22;144994;874;5002;-80
2022/01/25 06:17:35;;;;;;;5.28;3.80;;;;;;;2.15;41.07;102816.19;144994;563;5002;-81
2022/01/25 06:20:02;;;;;;;7.87;4.50;;;;;;;2.17;40.79;102819.81;144994;910;5002;-81
2022/01/25 06:22:28;;;;;;;5.82;4.07;;;;;;;2.05;40.72;102818.59;144994;569;5002;-81
2022/01/25 06:24:55;;;;;;;6.50;4.05;;;;;;;2.18;41.12;102819.06;144994;700;5002;-82
2022/01/25 06:27:21;;;;;;;7.50;4.68;;;;;;;2.13;40.92;102810.03;144994;569;5002;-80
2022/01/25 06:29:49;;;;;;;6.65;4.40;;;;;;;2.03;40.36;102808.97;144994;811;5002;-81
2022/01/25 06:32:16;;;;;;;6.03;4.30;;;;;;;1.94;39.61;102814.09;144994;567;5002;-82
2022/01/25 06:34:59;;;;;;;7.03;4.20;;;;;;;1.58;40.09;102813.19;144994;860;5002;-81
2022/01/25 06:37:57;;;;;;;5.90;3.80;;;;;;;1.32;40.54;102818.25;144993;929;5002;-78
2022/01/25 06:40:28;;;;;;;6.65;4.07;;;;;;;1.83;41.30;102817.25;144994;569;5005;-78
2022/01/25 06:42:55;;;;;;;5.28;3.33;;;;;;;1.35;40.14;102816.00;144994;848;5004;-81
2022/01/25 06:45:23;;;;;;;4.80;3.33;;;;;;;1.56;40.56;102824.00;144994;568;5004;-81
2022/01/25 06:47:51;;;;;;;6.70;3.20;;;;;;;1.50;41.04;102819.19;144994;574;5004;-82
2022/01/25 06:50:21;;;;;;;4.40;3.53;;;;;;;1.66;40.71;102821.62;144994;591;5004;-82
2022/01/25 06:52:47;;;;;;;6.10;3.78;;;;;;;1.70;40.72;102821.16;144994;648;5004;-81
2022/01/25 06:55:17;;;;;;;5.97;3.90;;;;;;;1.95;40.45;102821.03;144994;608;5004;-79
2022/01/25 06:57:46;;;;;;;7.37;3.87;;;;;;;2.04;40.31;102811.69;144994;571;5004;-81
2022/01/25 07:00:19;;;;;;;6.87;4.28;;;;;;;2.42;40.76;102817.06;144994;587;5004;-79
2022/01/25 07:02:46;;;;;;;6.80;4.43;;;;;;;2.70;39.13;102806.88;144994;664;5004;-81
2022/01/25 07:05:13;;;;;;;9.43;5.55;;;;;;;3.07;38.79;102811.25;144994;578;5004;-80
2022/01/25 07:07:40;;;;;;;6.30;4.20;;;;;;;3.17;38.31;102807.88;144994;571;4568;-79
2022/01/25 07:10:08;;;;;;;5.70;3.90;;;;;;;3.47;37.34;102800.28;144994;590;4575;-80
2022/01/25 07:12:38;;;;;;;5.70;3.50;;;;;;;3.73;37.03;102794.97;144994;719;4574;-86
2022/01/25 07:15:05;;;;;;;6.00;3.83;;;;;;;3.48;36.91;102791.84;144993;572;6000;-79
2022/01/25 07:17:32;;;;;;;5.97;3.53;;;;;;;3.85;36.20;102788.38;144992;591;6002;-78
2022/01/25 07:19:59;;;;;;;5.28;3.70;;;;;;;4.48;37.69;102791.38;144992;595;6002;-81
2022/01/25 07:22:25;;;;;;;4.50;3.60;;;;;;;4.97;37.44;102801.56;144992;564;6002;-80
2022/01/25 07:24:52;;;;;;;5.80;4.07;;;;;;;5.13;37.28;102793.47;144992;600;6002;-80
2022/01/25 07:27:19;;;;;;;4.55;3.75;;;;;;;4.93;34.79;102797.78;144992;678;6002;-80
2022/01/25 07:29:45;;;;;;;6.85;3.72;;;;;;;5.40;36.60;102790.62;144992;576;6002;-79
2022/01/25 07:32:15;;;;;;;4.28;3.33;;;;;;;5.56;34.11;102779.03;144992;737;6003;-80
2022/01/25 07:34:42;;;;;;;4.25;3.75;;;;;;;4.89;33.14;102785.44;144992;569;6002;-80
2022/01/25 07:37:09;;;;;;;4.05;3.65;;;;;;;5.00;34.28;102778.66;144992;627;6002;-80
2022/01/25 07:39:38;;;;;;;3.30;2.83;;;;;;;4.74;33.63;102774.75;144992;665;6003;-80
2022/01/25 07:42:06;;;;;;;4.12;3.30;;;;;;;4.62;33.71;102782.28;144992;616;6002;-80
2022/01/25 07:44:36;;;;;;;4.20;3.67;;;;;;;4.95;34.23;102785.97;144992;639;6002;-80
2022/01/25 07:47:04;;;;;;;6.65;4.00;;;;;;;5.71;35.85;102772.59;144992;671;6002;-81
2022/01/25 07:49:30;;;;;;;6.70;4.55;;;;;;;6.10;34.52;102770.59;144992;570;6002;-80
2022/01/25 07:51:58;;;;;;;7.78;5.70;;;;;;;6.17;34.07;102772.87;144992;640;6002;-80
2022/01/25 07:54:25;;;;;;;6.45;5.25;;;;;;;6.57;34.54;102773.50;144992;592;6002;-80
2022/01/25 07:56:52;;;;;;;12.23;5.60;;;;;;;6.40;32.56;102766.09;144992;567;6002;-81
2022/01/25 07:59:20;;;;;;;7.25;5.07;;;;;;;6.30;32.99;102772.16;144992;563;6002;-80
2022/01/25 08:01:46;;;;;;;8.75;5.30;;;;;;;6.14;32.43;102764.88;144992;604;6002;-81
2022/01/25 08:04:14;;;;;;;7.40;4.43;;;;;;;6.50;33.03;102768.59;144992;611;6002;-81
2022/01/25 08:06:41;;;;;;;7.53;5.07;;;;;;;6.23;34.36;102765.63;144992;602;6002;-79
2022/01/25 08:09:09;;;;;;;6.82;5.10;;;;;;;6.57;33.83;102765.75;144992;585;6002;-79
2022/01/25 08:11:36;;;;;;;7.07;5.15;;;;;;;6.51;33.62;102773.00;144992;620;6002;-81
2022/01/25 08:14:12;;;;;;;8.57;6.25;;;;;;;7.04;34.93;102776.25;144992;607;6002;-79
2022/01/25 08:16:45;;;;;;;6.93;5.50;;;;;;;6.76;32.16;102775.84;144992;563;6002;-81
2022/01/25 08:19:12;;;;;;;5.37;4.60;;;;;;;7.36;34.30;102779.50;144992;588;6002;-81
2022/01/25 08:21:42;;;;;;;5.78;4.20;;;;;;;7.32;29.62;102772.31;144992;581;6002;-80
2022/01/25 08:24:13;;;;;;;5.37;4.00;;;;;;;7.23;32.85;102772.53;144992;569;6002;-80
2022/01/25 08:26:43;;;;;;;6.15;4.20;;;;;;;7.54;33.21;102768.00;144992;564;6002;-82
2022/01/25 08:29:10;;;;;;;4.90;4.03;;;;;;;6.90;30.43;102762.31;144992;569;6002;-80
2022/01/25 08:31:40;;;;;;;4.85;3.92;;;;;;;6.85;31.15;102773.06;144992;563;6002;-81
2022/01/25 08:34:11;;;;;;;5.30;4.30;;;;;;;7.10;32.05;102770.69;144992;569;6002;-89
2022/01/25 08:36:40;;;;;;;5.05;4.50;;;;;;;6.87;31.41;102776.63;144992;639;6002;-84
2022/01/25 08:39:08;;;;;;;6.35;3.83;;;;;;;6.63;31.65;102768.78;144992;606;6003;-82
2022/01/25 08:41:35;;;;;;;6.37;4.22;;;;;;;6.74;32.22;102784.22;144992;601;6002;-80
2022/01/25 08:44:01;;;;;;;5.18;4.65;;;;;;;6.68;33.45;102780.38;144992;572;6002;-80
2022/01/25 08:46:29;;;;;;;7.30;4.80;;;;;;;6.41;33.49;102768.78;144992;590;6002;-82
2022/01/25 08:48:55;;;;;;;8.25;5.35;;;;;;;6.68;33.80;102771.72;144992;573;6002;-81
2022/01/25 08:51:22;;;;;;;6.95;5.00;;;;;;;6.14;31.78;102770.97;144992;588;6002;-82
2022/01/25 08:53:48;;;;;;;7.50;5.85;;;;;;;6.44;32.69;102773.28;144992;627;6002;-79
2022/01/25 08:56:16;;;;;;;7.30;5.97;;;;;;;6.24;32.53;102770.00;144992;609;6002;-81
2022/01/25 08:58:43;;;;;;;9.55;5.95;;;;;;;6.14;32.51;102775.19;144992;613;6002;-80
2022/01/25 09:01:09;;;;;;;8.18;6.30;;;;;;;6.33;32.95;102768.19;144992;589;6002;-79
2022/01/25 09:03:36;;;;;;;6.50;4.72;;;;;;;6.50;32.89;102766.91;144992;591;6002;-80
2022/01/25 09:06:04;;;;;;;6.15;4.45;;;;;;;6.40;31.83;102764.41;144992;588;6002;-80
2022/01/25 09:08:36;;;;;;;6.35;4.75;;;;;;;6.21;31.94;102762.03;144992;597;6003;-81
2022/01/25 09:11:21;;;;;;;6.70;5.18;;;;;;;6.40;32.39;102759.25;144992;585;6002;-85
2022/01/25 09:13:52;;;;;;;7.40;5.10;;;;;;;5.88;32.69;102755.91;144992;573;6002;-84
2022/01/25 09:16:20;;;;;;;7.45;5.22;;;;;;;6.31;33.69;102753.34;144992;558;6003;-86
2022/01/25 09:18:47;;;;;;;8.45;6.32;;;;;;;6.71;31.97;102753.91;144992;592;6002;-87
2022/01/25 09:21:15;;;;;;;14.90;11.85;;;;;;;6.17;31.87;102753.16;144992;603;6002;-84
2022/01/25 09:23:42;;;;;;;9.02;7.70;;;;;;;6.70;31.83;102753.00;144992;651;6002;-86
2022/01/25 09:26:09;;;;;;;8.40;7.50;;;;;;;6.77;31.49;102750.91;144992;575;6002;-89
2022/01/25 09:28:38;;;;;;;7.25;5.87;;;;;;;7.15;32.26;102753.84;144992;599;6002;-88
2022/01/25 09:31:41;;;;;;;;;;;;;;;;;;;;;
2022/01/25 09:34:40;;;;;;;7.45;5.07;;;;;;;7.12;31.81;102745.88;144992;569;6002;-82
2022/01/25 09:37:09;;;;;;;6.28;5.00;;;;;;;7.03;32.15;102740.91;144992;632;6002;-87
2022/01/25 09:39:39;;;;;;;7.53;5.53;;;;;;;7.50;30.83;102729.75;144992;653;6002;-90
2022/01/25 09:42:17;;;;;;;11.80;9.15;;;;;;;7.97;31.90;102731.47;144992;575;6002;-94
2022/01/25 09:44:45;;;;;;;11.80;10.60;;;;;;;7.84;29.83;102721.91;144992;590;6002;-88
2022/01/25 09:47:12;;;;;;;8.93;6.70;;;;;;;7.30;31.19;102717.97;144992;583;6002;-88
2022/01/25 09:49:40;;;;;;;7.30;5.97;;;;;;;6.95;32.29;102717.84;144992;565;6002;-89
2022/01/25 09:52:08;;;;;;;6.05;4.97;;;;;;;6.98;31.02;102715.50;144992;571;6002;-87
2022/01/25 09:54:36;;;;;;;8.30;6.12;;;;;;;7.29;31.02;102713.56;144992;702;6002;-87
2022/01/25 09:57:05;;;;;;;9.02;5.22;;;;;;;7.47;31.46;102706.28;144992;579;6002;-94
2022/01/25 09:59:34;;;;;;;5.78;4.78;;;;;;;7.11;30.43;102695.00;144992;585;6002;-87
2022/01/25 10:02:00;;;;;;;15.07;10.38;;;;;;;7.20;30.94;102694.78;144992;587;6002;-87
2022/01/25 10:04:37;;;;;;;76.93;41.50;;;;;;;7.50;30.95;102696.16;144992;576;6002;-84
2022/01/25 10:07:09;;;;;;;79.05;43.83;;;;;;;7.99;31.95;102685.94;144992;648;6002;-80
2022/01/25 10:09:40;;;;;;;38.15;25.40;;;;;;;7.59;30.34;102678.75;144992;565;6002;-80
2022/01/25 10:12:20;;;;;;;18.15;14.52;;;;;;;7.99;31.83;102681.63;144992;651;6002;-81
2022/01/25 10:15:19;;;;;;;8.80;7.30;;;;;;;8.30;30.92;102670.91;144992;563;6002;-82
2022/01/25 10:17:46;;;;;;;6.10;5.18;;;;;;;7.78;31.62;102659.44;144992;571;6004;-83
2022/01/25 10:20:26;;;;;;;6.72;5.25;;;;;;;7.87;31.54;102664.34;144992;700;6004;-80
2022/01/25 10:22:57;;;;;;;6.43;5.12;;;;;;;8.38;30.85;102661.06;144992;690;6004;-80
2022/01/25 10:25:31;;;;;;;6.18;5.25;;;;;;;8.41;28.96;102658.69;144992;673;6004;-81
2022/01/25 10:28:03;;;;;;;5.82;4.22;;;;;;;8.87;30.50;102650.63;144992;596;6004;-81
2022/01/25 10:30:32;;;;;;;5.25;4.22;;;;;;;8.56;29.26;102655.38;144992;570;6004;-82
2022/01/25 10:33:02;;;;;;;6.43;4.82;;;;;;;7.30;31.19;102644.69;144992;566;6004;-81
2022/01/25 10:35:30;;;;;;;8.00;6.03;;;;;;;7.76;30.08;102646.38;144992;719;6004;-80
2022/01/25 10:37:57;;;;;;;7.15;4.70;;;;;;;8.13;30.17;102640.34;144992;565;6004;-82
2022/01/25 10:40:38;;;;;;;6.20;5.03;;;;;;;8.32;29.14;102632.19;144992;654;6004;-84
2022/01/25 10:43:06;;;;;;;6.15;4.32;;;;;;;8.69;30.30;102634.75;144992;582;6004;-82
2022/01/25 10:45:32;;;;;;;7.00;4.72;;;;;;;8.65;30.12;102622.38;144992;650;6004;-82
2022/01/25 10:47:59;;;;;;;5.87;5.00;;;;;;;8.45;29.82;102631.38;144992;654;6004;-80
2022/01/25 10:50:34;;;;;;;5.15;4.37;;;;;;;8.13;29.81;102627.41;144992;669;6004;-82
2022/01/25 10:53:15;;;;;;;6.95;4.95;;;;;;;8.39;31.01;102617.97;144992;580;6004;-83
2022/01/25 10:55:52;;;;;;;7.65;6.10;;;;;;;8.39;31.38;102610.22;144992;710;6004;-81
2022/01/25 10:58:19;;;;;;;7.25;5.82;;;;;;;8.48;31.82;102605.72;144992;699;6002;-80
2022/01/25 11:00:49;;;;;;;8.13;6.57;;;;;;;8.88;31.49;102600.63;144992;587;6002;-83
2022/01/25 11:03:54;;;;;;;6.87;4.87;;;;;;;8.87;31.33;102602.28;144992;578;6002;-80
2022/01/25 11:06:20;;;;;;;5.95;4.55;;;;;;;9.15;31.64;102596.37;144992;629;6004;-83
2022/01/25 11:08:53;;;;;;;7.12;4.90;;;;;;;8.85;29.93;102588.34;144992;641;6004;-81
2022/01/25 11:11:35;;;;;;;5.10;4.40;;;;;;;8.17;30.76;102586.31;144992;599;6004;-84
2022/01/25 11:16:59;;;;;;;5.97;4.60;;;;;;;8.74;31.59;102571.22;144992;574;6002;-82
2022/01/25 11:19:26;;;;;;;6.18;4.45;;;;;;;8.58;31.61;102566.69;144992;585;6002;-80
2022/01/25 11:21:54;;;;;;;6.07;4.65;;;;;;;8.14;29.57;102560.25;144992;607;6002;-80
2022/01/25 11:24:24;;;;;;;7.72;5.80;;;;;;;8.93;31.29;102557.78;144992;571;6002;-81
2022/01/25 11:26:52;;;;;;;8.20;4.53;;;;;;;8.01;30.23;102546.38;144992;657;6002;-81
2022/01/25 11:29:20;;;;;;;6.85;4.93;;;;;;;8.25;31.89;102541.97;144992;582;6002;-81
2022/01/25 11:32:08;;;;;;;9.27;6.37;;;;;;;8.02;30.66;102527.44;144992;592;6002;-81
2022/01/25 11:34:43;;;;;;;10.65;7.62;;;;;;;7.97;31.83;102524.56;144992;571;6002;-79
2022/01/25 11:37:10;;;;;;;8.57;6.47;;;;;;;8.20;30.79;102517.50;144992;579;6002;-82
2022/01/25 11:39:43;;;;;;;8.02;5.53;;;;;;;7.81;30.15;102510.56;144992;661;6002;-81
2022/01/25 11:42:15;;;;;;;7.20;5.55;;;;;;;8.23;30.35;102499.59;144992;594;6002;-81
2022/01/25 11:44:54;;;;;;;6.70;4.57;;;;;;;7.53;30.25;102506.84;144992;603;6002;-84
2022/01/25 11:47:29;;;;;;;7.75;5.00;;;;;;;7.61;30.12;102500.53;144992;564;6002;-81
2022/01/25 11:50:11;;;;;;;6.85;4.50;;;;;;;7.42;30.74;102506.97;144992;608;6002;-80
2022/01/25 11:52:48;;;;;;;8.45;4.85;;;;;;;6.78;30.25;102500.63;144992;574;6002;-80
2022/01/25 11:55:31;;;;;;;6.35;4.28;;;;;;;6.62;30.10;102489.97;144992;595;6002;-80
2022/01/25 11:58:07;;;;;;;4.95;4.07;;;;;;;6.89;31.21;102485.94;144992;606;6002;-79
2022/01/25 12:00:44;;;;;;;8.02;4.40;;;;;;;7.40;30.94;102487.00;144992;598;6002;-80
2022/01/25 12:03:42;;;;;;;5.87;4.90;;;;;;;7.78;30.91;102481.91;144992;561;6002;-78
2022/01/25 12:06:33;;;;;;;5.93;4.65;;;;;;;7.93;29.38;102474.31;144992;704;6002;-82
2022/01/25 12:09:15;;;;;;;5.55;4.62;;;;;;;8.51;29.77;102471.28;144992;642;6002;-79
2022/01/25 12:11:52;;;;;;;6.03;4.25;;;;;;;8.39;28.11;102467.88;144992;733;6002;-80
2022/01/25 12:14:33;;;;;;;5.97;4.32;;;;;;;7.79;28.41;102462.12;144992;734;6002;-80
2022/01/25 12:17:13;;;;;;;6.62;4.43;;;;;;;7.73;29.26;102467.78;144992;618;6002;-80
2022/01/25 12:19:59;;;;;;;4.22;3.50;;;;;;;7.23;29.27;102465.13;144992;569;6002;-80
2022/01/25 12:25:34;;;;;;;5.45;4.10;;;;;;;7.71;30.37;102471.03;144992;568;6004;-80
2022/01/25 12:28:41;;;;;;;4.72;3.90;;;;;;;7.70;29.92;102458.88;144992;659;6004;-81
2022/01/25 12:31:29;;;;;;;6.30;4.47;;;;;;;7.84;28.68;102463.31;144992;567;6002;-78
2022/01/25 12:34:26;;;;;;;5.18;3.95;;;;;;;7.81;29.36;102452.81;144992;615;6004;-80
2022/01/25 12:36:52;;;;;;;5.62;4.10;;;;;;;7.61;29.20;102448.81;144992;616;6004;-81
2022/01/25 12:39:34;;;;;;;5.20;4.45;;;;;;;8.23;29.82;102443.56;144992;661;6012;-79
2022/01/25 12:42:01;;;;;;;6.37;4.40;;;;;;;7.96;29.68;102433.13;144992;656;6013;-80
2022/01/25 12:44:28;;;;;;;7.25;4.97;;;;;;;7.70;29.34;102433.97;144992;596;6004;-81
2022/01/25 12:46:54;;;;;;;5.55;3.97;;;;;;;8.11;29.09;102435.88;144992;579;6004;-82
2022/01/25 12:49:26;;;;;;;6.25;3.80;;;;;;;7.36;28.89;102433.28;144992;589;6004;-80
2022/01/25 12:51:55;;;;;;;5.97;4.65;;;;;;;7.83;28.99;102430.53;144992;567;6004;-80
2022/01/25 12:54:25;;;;;;;5.60;4.25;;;;;;;7.60;29.45;102411.75;144992;595;6004;-82
2022/01/25 12:56:54;;;;;;;5.10;3.35;;;;;;;8.03;30.04;102412.87;144992;567;6004;-83
2022/01/25 12:59:24;;;;;;;4.50;3.15;;;;;;;8.25;28.77;102415.19;144992;589;6004;-82
2022/01/25 13:01:54;;;;;;;4.95;3.67;;;;;;;8.59;29.81;102413.19;144992;600;6004;-81
2022/01/25 13:04:20;;;;;;;4.07;3.40;;;;;;;8.70;29.87;102406.06;144992;704;6004;-80
2022/01/25 13:06:51;;;;;;;4.72;3.67;;;;;;;8.60;29.60;102414.06;144992;588;6004;-80
2022/01/25 13:09:35;;;;;;;5.03;3.80;;;;;;;8.55;30.00;102405.12;144992;619;6004;-81
2022/01/25 13:15:03;;;;;;;6.15;4.05;;;;;;;8.13;29.97;102397.19;144992;695;6002;-80
2022/01/25 13:17:31;;;;;;;4.90;4.40;;;;;;;8.08;30.15;102395.97;144991;567;6002;-83
2022/01/25 13:20:02;;;;;;;6.00;4.43;;;;;;;8.15;29.89;102398.19;144992;645;6002;-80
2022/01/25 13:22:35;;;;;;;5.90;4.82;;;;;;;7.40;30.40;102401.72;144992;646;6002;-80
2022/01/25 13:25:43;;;;;;;6.62;4.35;;;;;;;7.38;29.84;102395.53;144992;585;6002;-81
2022/01/25 13:28:31;;;;;;;4.72;3.42;;;;;;;7.31;30.46;102386.47;144993;577;6002;-81
2022/01/25 13:31:01;;;;;;;6.30;3.70;;;;;;;7.13;29.86;102393.84;144993;677;6000;-83
2022/01/25 13:33:29;;;;;;;7.62;4.47;;;;;;;7.53;29.91;102395.72;144993;595;6002;-82
2022/01/25 13:35:57;;;;;;;6.37;5.75;;;;;;;7.66;29.86;102398.34;144993;575;6002;-81
2022/01/25 13:38:27;;;;;;;7.35;5.47;;;;;;;7.46;30.61;102402.16;144993;567;6002;-80
2022/01/25 13:46:44;;;;;;;6.43;4.28;;;;;;;7.44;30.30;102388.22;144993;566;6000;-79